Time;durP1;ratioP1;P1;durP2;ratioP2;P2;SDS_P1;SDS_P2;PMS_P1;PMS_P2;Temp;Humidity;BMP_temperature;BMP_pressure;BME280_temperature;BME280_humidity;BME280_pressure;Samples;Min_cycle;Max_cycle;Signal;HPM_P1;HPM_P2
2022/07/16 00:03:22;;;;;;;;;;;;;;;;;;5055662;28;1261;-72
2022/07/16 00:05:48;;;;;;;;;;;;;;;;;;4988563;28;1914;-73
2022/07/16 00:08:14;;;;;;;;;;;;;;;;;;4987521;28;790;-71
2022/07/16 00:10:40;;;;;;;;;;;;;;;;;;5055719;28;1148;-72
2022/07/16 00:13:06;;;;;;;;;;;;;;;;;;4988508;28;1282;-71
2022/07/16 00:15:33;;;;;;;;;;;;;;;;;;4988786;28;1118;-71
2022/07/16 00:20:40;;;;;;;;;;;;;;;;;;4991055;28;1028;-73
2022/07/16 00:23:07;;;;;;;;;;;;;;;;;;4990851;28;1289;-72
2022/07/16 00:25:33;;;;;;;;;;;;;;;;;;4992077;28;755;-72
2022/07/16 00:27:59;;;;;;;;;;;;;;;;;;4991402;28;1981;-72
2022/07/16 00:30:25;;;;;;;;;;;;;;;;;;4991762;28;948;-72
2022/07/16 00:32:51;;;;;;;;;;;;;;;;;;5059255;28;1321;-71
2022/07/16 00:35:18;;;;;;;;;;;;;;;;;;4991610;28;1072;-72
2022/07/16 00:37:45;;;;;;;;;;;;;;;;;;5058375;28;1144;-73
2022/07/16 00:40:12;;;;;;;;;;;;;;;;;;4991608;28;1059;-72
2022/07/16 00:42:38;;;;;;;;;;;;;;;;;;5058752;28;1156;-73
2022/07/16 00:45:04;;;;;;;;;;;;;;;;;;4991375;28;1318;-73
2022/07/16 00:47:31;;;;;;;;;;;;;;;;;;4987643;28;1914;-73
2022/07/16 00:49:57;;;;;;;;;;;;;;;;;;4991219;28;1055;-72
2022/07/16 00:52:23;;;;;;;;;;;;;;;;;;4991334;28;1127;-73
2022/07/16 00:54:51;;;;;;;;;;;;;;;;;;4991506;28;1265;-72
2022/07/16 00:57:17;;;;;;;;;;;;;;;;;;5058035;28;1329;-72
2022/07/16 00:59:43;;;;;;;;;;;;;;;;;;4991462;28;976;-73
2022/07/16 01:02:10;;;;;;;;;;;;;;;;;;4991243;28;1082;-73
2022/07/16 01:04:36;;;;;;;;;;;;;;;;;;4991139;28;1330;-72
2022/07/16 01:07:03;;;;;;;;;;;;;;;;;;4990208;28;1914;-73
2022/07/16 01:09:30;;;;;;;;;;;;;;;;;;5058723;28;1193;-72
2022/07/16 01:11:57;;;;;;;;;;;;;;;;;;5058275;28;1313;-72
2022/07/16 01:14:24;;;;;;;;;;;;;;;;;;5058483;28;1398;-73
2022/07/16 01:16:50;;;;;;;;;;;;;;;;;;5057920;28;1163;-72
2022/07/16 01:19:16;;;;;;;;;;;;;;;;;;4990979;28;1075;-72
2022/07/16 01:21:43;;;;;;;;;;;;;;;;;;5058328;28;1147;-72
2022/07/16 01:24:11;;;;;;;;;;;;;;;;;;5058140;28;1399;-72
2022/07/16 01:26:37;;;;;;;;;;;;;;;;;;5057723;28;1973;-72
2022/07/16 01:29:03;;;;;;;;;;;;;;;;;;4990958;28;1123;-72
2022/07/16 01:31:30;;;;;;;;;;;;;;;;;;4990734;28;1091;-72
2022/07/16 01:36:38;;;;;;;;;;;;;;;;;;4992874;28;1203;-72
2022/07/16 01:39:04;;;;;;;;;;;;;;;;;;4990731;28;948;-72
2022/07/16 01:41:32;;;;;;;;;;;;;;;;;;4990743;28;953;-73
2022/07/16 01:43:58;;;;;;;;;;;;;;;;;;4990472;28;1325;-73
2022/07/16 01:46:24;;;;;;;;;;;;;;;;;;4980490;28;2278;-71
2022/07/16 01:48:50;;;;;;;;;;;;;;;;;;4966202;28;1349;-71
2022/07/16 01:51:17;;;;;;;;;;;;;;;;;;4971026;28;1213;-71
2022/07/16 01:53:43;;;;;;;;;;;;;;;;;;4969882;28;1409;-71
2022/07/16 01:56:09;;;;;;;;;;;;;;;;;;4970241;28;1124;-71
2022/07/16 01:58:37;;;;;;;;;;;;;;;;;;4969502;28;1109;-71
2022/07/16 02:01:03;;;;;;;;;;;;;;;;;;4970761;28;838;-71
2022/07/16 02:03:29;;;;;;;;;;;;;;;;;;4970658;28;1308;-71
2022/07/16 02:05:55;;;;;;;;;;;;;;;;;;4970678;28;691;-71
2022/07/16 02:08:22;;;;;;;;;;;;;;;;;;4969957;28;1915;-71
2022/07/16 02:10:48;;;;;;;;;;;;;;;;;;4970529;28;1068;-71
2022/07/16 02:13:14;;;;;;;;;;;;;;;;;;4970707;28;1344;-71
2022/07/16 02:15:41;;;;;;;;;;;;;;;;;;4970773;28;1115;-71
2022/07/16 02:18:08;;;;;;;;;;;;;;;;;;4968689;28;1145;-71
2022/07/16 02:20:34;;;;;;;;;;;;;;;;;;4970664;28;928;-71
2022/07/16 02:23:00;;;;;;;;;;;;;;;;;;4970868;28;1308;-71
2022/07/16 02:25:26;;;;;;;;;;;;;;;;;;4970693;28;1131;-71
2022/07/16 02:28:08;;;;;;;;;;;;;;;;;;4969784;28;1911;-71
2022/07/16 02:30:34;;;;;;;;;;;;;;;;;;4970342;28;1040;-71
2022/07/16 02:33:02;;;;;;;;;;;;;;;;;;4970488;28;1399;-72
2022/07/16 02:35:28;;;;;;;;;;;;;;;;;;4969103;28;878;-71
2022/07/16 02:37:54;;;;;;;;;;;;;;;;;;4969733;28;936;-71
2022/07/16 02:40:20;;;;;;;;;;;;;;;;;;4970300;28;901;-71
2022/07/16 02:42:46;;;;;;;;;;;;;;;;;;4972439;28;1447;-71
2022/07/16 02:45:12;;;;;;;;;;;;;;;;;;4969753;28;1072;-71
2022/07/16 02:47:39;;;;;;;;;;;;;;;;;;4969479;28;1915;-71
2022/07/16 02:50:07;;;;;;;;;;;;;;;;;;5036788;28;1104;-71
2022/07/16 02:52:33;;;;;;;;;;;;;;;;;;4970178;28;961;-71
2022/07/16 02:55:00;;;;;;;;;;;;;;;;;;4970278;28;1306;-71
2022/07/16 02:57:26;;;;;;;;;;;;;;;;;;5035894;28;1385;-71
2022/07/16 02:59:52;;;;;;;;;;;;;;;;;;4970243;28;926;-71
2022/07/16 03:02:18;;;;;;;;;;;;;;;;;;4969918;28;1064;-71
2022/07/16 03:04:44;;;;;;;;;;;;;;;;;;4969871;28;1286;-71
2022/07/16 03:07:12;;;;;;;;;;;;;;;;;;4969470;28;1966;-71
2022/07/16 03:09:38;;;;;;;;;;;;;;;;;;4970066;28;1064;-71
2022/07/16 03:12:04;;;;;;;;;;;;;;;;;;5036330;28;1234;-70
2022/07/16 03:14:31;;;;;;;;;;;;;;;;;;4970014;28;1290;-71
2022/07/16 03:16:57;;;;;;;;;;;;;;;;;;5035869;28;1183;-71
2022/07/16 03:19:23;;;;;;;;;;;;;;;;;;4969850;28;1004;-71
2022/07/16 03:21:49;;;;;;;;;;;;;;;;;;4967930;28;1428;-71
2022/07/16 03:24:17;;;;;;;;;;;;;;;;;;4981138;22;2222;-73
2022/07/16 03:26:43;;;;;;;;;;;;;;;;;;4976692;28;2039;-74
2022/07/16 03:29:09;;;;;;;;;;;;;;;;;;4961180;28;1403;-73
2022/07/16 03:31:35;;;;;;;;;;;;;;;;;;4968509;28;1402;-74
2022/07/16 03:34:02;;;;;;;;;;;;;;;;;;4967657;28;1431;-74
2022/07/16 03:36:28;;;;;;;;;;;;;;;;;;4932443;29;1213;-74
2022/07/16 03:39:02;;;;;;;;;;;;;;;;;;4957153;28;1413;-73
2022/07/16 03:41:31;;;;;;;;;;;;;;;;;;4963561;28;1143;-74
2022/07/16 03:43:57;;;;;;;;;;;;;;;;;;4965309;28;1387;-73
2022/07/16 03:46:23;;;;;;;;;;;;;;;;;;4952023;28;1460;-73
2022/07/16 03:48:49;;;;;;;;;;;;;;;;;;4960008;28;1969;-72
2022/07/16 03:51:16;;;;;;;;;;;;;;;;;;4961622;28;1084;-74
2022/07/16 03:53:42;;;;;;;;;;;;;;;;;;4940829;29;1400;-73
2022/07/16 03:56:09;;;;;;;;;;;;;;;;;;4950598;28;1399;-74
2022/07/16 03:58:37;;;;;;;;;;;;;;;;;;4962469;28;1146;-72
2022/07/16 04:01:03;;;;;;;;;;;;;;;;;;4961360;28;1424;-74
2022/07/16 04:03:29;;;;;;;;;;;;;;;;;;4943347;28;1377;-74
2022/07/16 04:05:56;;;;;;;;;;;;;;;;;;4962905;28;1410;-74
2022/07/16 04:08:22;;;;;;;;;;;;;;;;;;4952587;28;1931;-72
2022/07/16 04:10:48;;;;;;;;;;;;;;;;;;4970938;28;1068;-73
2022/07/16 04:13:14;;;;;;;;;;;;;;;;;;4971987;28;720;-74
2022/07/16 04:15:42;;;;;;;;;;;;;;;;;;4955008;28;1427;-73
2022/07/16 04:18:08;;;;;;;;;;;;;;;;;;4971785;28;861;-74
2022/07/16 04:20:34;;;;;;;;;;;;;;;;;;4972492;28;1055;-74
2022/07/16 04:23:00;;;;;;;;;;;;;;;;;;4972762;28;1115;-75
2022/07/16 04:25:27;;;;;;;;;;;;;;;;;;4973409;28;1311;-74
2022/07/16 04:27:53;;;;;;;;;;;;;;;;;;4972365;28;1906;-74
2022/07/16 04:30:19;;;;;;;;;;;;;;;;;;4973716;28;786;-74
2022/07/16 04:32:47;;;;;;;;;;;;;;;;;;4972130;28;1055;-74
2022/07/16 04:35:13;;;;;;;;;;;;;;;;;;4949025;28;1519;-75
2022/07/16 04:37:40;;;;;;;;;;;;;;;;;;4952143;29;981;-74
2022/07/16 04:40:07;;;;;;;;;;;;;;;;;;4935772;29;1324;-74
2022/07/16 04:42:33;;;;;;;;;;;;;;;;;;4935442;29;1191;-74
2022/07/16 04:45:00;;;;;;;;;;;;;;;;;;4952731;28;1304;-74
2022/07/16 04:47:26;;;;;;;;;;;;;;;;;;4951956;29;1911;-74
2022/07/16 04:49:54;;;;;;;;;;;;;;;;;;4952590;29;914;-74
2022/07/16 04:52:20;;;;;;;;;;;;;;;;;;4952650;29;1116;-75
2022/07/16 04:54:46;;;;;;;;;;;;;;;;;;4952435;28;1379;-75
2022/07/16 04:57:13;;;;;;;;;;;;;;;;;;4951849;29;1056;-75
2022/07/16 04:59:39;;;;;;;;;;;;;;;;;;4952425;29;937;-74
2022/07/16 05:04:45;;;;;;;;;;;;;;;;;;4951237;28;1310;-75
2022/07/16 05:07:13;;;;;;;;;;;;;;;;;;4951524;28;1910;-75
2022/07/16 05:09:39;;;;;;;;;;;;;;;;;;4951973;29;1111;-74
2022/07/16 05:12:06;;;;;;;;;;;;;;;;;;4952492;29;1095;-73
2022/07/16 05:14:32;;;;;;;;;;;;;;;;;;4934999;29;1332;-74
2022/07/16 05:16:58;;;;;;;;;;;;;;;;;;4951641;29;1111;-74
2022/07/16 05:19:24;;;;;;;;;;;;;;;;;;4952279;29;926;-74
2022/07/16 05:21:50;;;;;;;;;;;;;;;;;;4952079;29;863;-74
2022/07/16 05:24:18;;;;;;;;;;;;;;;;;;4951989;28;1379;-73
2022/07/16 05:26:44;;;;;;;;;;;;;;;;;;4951509;29;1064;-73
2022/07/16 05:29:10;;;;;;;;;;;;;;;;;;4952087;29;1978;-72
2022/07/16 05:31:36;;;;;;;;;;;;;;;;;;4934930;28;1037;-74
2022/07/16 05:34:03;;;;;;;;;;;;;;;;;;4952073;28;1306;-73
2022/07/16 05:36:29;;;;;;;;;;;;;;;;;;4951489;29;1104;-72
2022/07/16 05:38:55;;;;;;;;;;;;;;;;;;4951900;29;1089;-74
2022/07/16 05:41:23;;;;;;;;;;;;;;;;;;4934830;29;1512;-74
2022/07/16 05:43:49;;;;;;;;;;;;;;;;;;4951776;28;1434;-73
2022/07/16 05:46:15;;;;;;;;;;;;;;;;;;4951325;29;787;-73
2022/07/16 05:48:41;;;;;;;;;;;;;;;;;;4934497;29;1918;-73
2022/07/16 05:51:08;;;;;;;;;;;;;;;;;;4934625;29;1406;-73
2022/07/16 05:53:34;;;;;;;;;;;;;;;;;;4934648;28;1363;-73
2022/07/16 05:56:00;;;;;;;;;;;;;;;;;;4951716;29;1119;-72
2022/07/16 05:58:28;;;;;;;;;;;;;;;;;;4951012;29;791;-72
2022/07/16 06:00:54;;;;;;;;;;;;;;;;;;4951560;29;1064;-72
2022/07/16 06:03:20;;;;;;;;;;;;;;;;;;4951611;28;1393;-70
2022/07/16 06:05:46;;;;;;;;;;;;;;;;;;4951575;29;642;-72
2022/07/16 06:08:12;;;;;;;;;;;;;;;;;;4933684;28;1919;-72
2022/07/16 06:10:39;;;;;;;;;;;;;;;;;;4951484;29;798;-72
2022/07/16 06:13:05;;;;;;;;;;;;;;;;;;4934254;29;1282;-73
2022/07/16 06:15:32;;;;;;;;;;;;;;;;;;4951505;28;1316;-73
2022/07/16 06:17:59;;;;;;;;;;;;;;;;;;4950592;29;960;-73
2022/07/16 06:20:25;;;;;;;;;;;;;;;;;;4950401;29;1052;-73
2022/07/16 06:22:54;;;;;;;;;;;;;;;;;;4951169;29;1033;-73
2022/07/16 06:25:20;;;;;;;;;;;;;;;;;;4951266;28;1271;-73
2022/07/16 06:27:46;;;;;;;;;;;;;;;;;;4950585;29;1915;-73
2022/07/16 06:30:13;;;;;;;;;;;;;;;;;;4951351;29;965;-73
2022/07/16 06:32:41;;;;;;;;;;;;;;;;;;4951247;29;1112;-73
2022/07/16 06:35:07;;;;;;;;;;;;;;;;;;4951068;28;1401;-74
2022/07/16 06:37:34;;;;;;;;;;;;;;;;;;4950572;29;918;-73
2022/07/16 06:40:00;;;;;;;;;;;;;;;;;;4933979;29;1597;-73
2022/07/16 06:42:26;;;;;;;;;;;;;;;;;;4933498;29;1468;-72
2022/07/16 06:44:53;;;;;;;;;;;;;;;;;;4933755;29;1336;-73
2022/07/16 06:47:19;;;;;;;;;;;;;;;;;;4950526;29;878;-73
2022/07/16 06:49:46;;;;;;;;;;;;;;;;;;4933635;29;1915;-72
2022/07/16 06:52:12;;;;;;;;;;;;;;;;;;4950982;29;1068;-73
2022/07/16 06:54:39;;;;;;;;;;;;;;;;;;4950791;28;1376;-73
2022/07/16 06:57:05;;;;;;;;;;;;;;;;;;4950326;29;807;-72
2022/07/16 06:59:31;;;;;;;;;;;;;;;;;;4950780;29;1068;-73
2022/07/16 07:01:57;;;;;;;;;;;;;;;;;;4950648;29;1056;-73
2022/07/16 07:04:23;;;;;;;;;;;;;;;;;;4950669;28;1269;-73
2022/07/16 07:06:51;;;;;;;;;;;;;;;;;;4949985;29;1072;-73
2022/07/16 07:09:17;;;;;;;;;;;;;;;;;;4950677;29;1911;-75
2022/07/16 07:11:44;;;;;;;;;;;;;;;;;;4950468;29;779;-74
2022/07/16 07:14:10;;;;;;;;;;;;;;;;;;4950602;28;1301;-72
2022/07/16 07:16:36;;;;;;;;;;;;;;;;;;4932642;28;1198;-72
2022/07/16 07:19:03;;;;;;;;;;;;;;;;;;4950523;29;1061;-73
2022/07/16 07:21:29;;;;;;;;;;;;;;;;;;4950578;28;1118;-73
2022/07/16 07:23:57;;;;;;;;;;;;;;;;;;4950335;28;1332;-72
2022/07/16 07:26:23;;;;;;;;;;;;;;;;;;4949819;29;1075;-74
2022/07/16 07:28:49;;;;;;;;;;;;;;;;;;4950191;29;1966;-73
2022/07/16 07:31:15;;;;;;;;;;;;;;;;;;4949995;29;1123;-73
2022/07/16 07:33:41;;;;;;;;;;;;;;;;;;4949977;28;1289;-73
2022/07/16 07:36:08;;;;;;;;;;;;;;;;;;4949970;29;791;-73
2022/07/16 07:38:34;;;;;;;;;;;;;;;;;;4950247;29;1044;-71
2022/07/16 07:41:01;;;;;;;;;;;;;;;;;;4950112;29;1068;-73
2022/07/16 07:43:27;;;;;;;;;;;;;;;;;;4950279;28;1398;-73
2022/07/16 07:45:54;;;;;;;;;;;;;;;;;;4950049;29;826;-73
2022/07/16 07:48:20;;;;;;;;;;;;;;;;;;4944051;28;2062;-74
2022/07/16 07:50:46;;;;;;;;;;;;;;;;;;5028218;28;1065;-73
2022/07/16 07:53:12;;;;;;;;;;;;;;;;;;4994039;28;1271;-73
2022/07/16 07:55:38;;;;;;;;;;;;;;;;;;5033949;28;1389;-74
2022/07/16 07:58:06;;;;;;;;;;;;;;;;;;5032625;28;1145;-74
2022/07/16 08:00:32;;;;;;;;;;;;;;;;;;5033055;28;989;-72
2022/07/16 08:02:58;;;;;;;;;;;;;;;;;;5050554;28;1068;-73
2022/07/16 08:05:25;;;;;;;;;;;;;;;;;;5050832;28;1351;-73
2022/07/16 08:07:51;;;;;;;;;;;;;;;;;;5049976;28;826;-74
2022/07/16 08:10:17;;;;;;;;;;;;;;;;;;5050639;28;1972;-72
2022/07/16 08:12:43;;;;;;;;;;;;;;;;;;5050450;28;985;-74
2022/07/16 08:15:11;;;;;;;;;;;;;;;;;;5050726;28;1383;-74
2022/07/16 08:17:38;;;;;;;;;;;;;;;;;;5031860;28;1184;-74
2022/07/16 08:20:04;;;;;;;;;;;;;;;;;;5050691;28;1040;-74
2022/07/16 08:22:30;;;;;;;;;;;;;;;;;;5050540;28;1127;-75
2022/07/16 08:27:40;;;;;;;;;;;;;;;;;;5049731;28;956;-72
2022/07/16 08:30:07;;;;;;;;;;;;;;;;;;5032495;28;1918;-73
2022/07/16 08:32:35;;;;;;;;;;;;;;;;;;5050342;28;1240;-74
2022/07/16 08:35:01;;;;;;;;;;;;;;;;;;5050142;28;1304;-74
2022/07/16 08:37:35;;;;;;;;;;;;;;;;;;5049754;28;831;-73
2022/07/16 08:40:02;;;;;;;;;;;;;;;;;;5032397;28;905;-73
2022/07/16 08:42:28;;;;;;;;;;;;;;;;;;5050211;28;962;-74
2022/07/16 08:44:54;;;;;;;;;;;;;;;;;;4996328;28;1471;-74
2022/07/16 08:47:20;;;;;;;;;;;;;;;;;;4952141;29;1052;-74
2022/07/16 08:49:48;;;;;;;;;;;;;;;;;;4952540;29;1914;-74
2022/07/16 08:52:14;;;;;;;;;;;;;;;;;;4952794;29;779;-73
2022/07/16 08:54:40;;;;;;;;;;;;;;;;;;4953260;28;1316;-74
2022/07/16 08:57:08;;;;;;;;;;;;;;;;;;4952115;29;1068;-74
2022/07/16 08:59:34;;;;;;;;;;;;;;;;;;4952604;29;1128;-75
2022/07/16 09:02:00;;;;;;;;;;;;;;;;;;4952317;29;1119;-75
2022/07/16 09:04:26;;;;;;;;;;;;;;;;;;4952568;28;1417;-74
2022/07/16 09:06:54;;;;;;;;;;;;;;;;;;4951896;29;1104;-74
2022/07/16 09:09:20;;;;;;;;;;;;;;;;;;4952410;29;1994;-75
2022/07/16 09:11:46;;;;;;;;;;;;;;;;;;4952280;29;1073;-73
2022/07/16 09:14:14;;;;;;;;;;;;;;;;;;4952333;28;1399;-75
2022/07/16 09:16:41;;;;;;;;;;;;;;;;;;4951647;29;1108;-74
2022/07/16 09:19:08;;;;;;;;;;;;;;;;;;4952158;29;1143;-73
2022/07/16 09:21:35;;;;;;;;;;;;;;;;;;4935087;29;1164;-74
2022/07/16 09:24:03;;;;;;;;;;;;;;;;;;4934827;29;1349;-74
2022/07/16 09:26:29;;;;;;;;;;;;;;;;;;4934247;29;831;-75
2022/07/16 09:28:55;;;;;;;;;;;;;;;;;;4951904;29;1968;-74
2022/07/16 09:31:32;;;;;;;;;;;;;;;;;;5047744;22;3722;-71
2022/07/16 09:34:00;;;;;;;;;;;;;;;;;;5075366;28;1120;-72
2022/07/16 09:36:26;;;;;;;;;;;;;;;;;;5074932;28;1302;-71
2022/07/16 09:38:53;;;;;;;;;;;;;;;;;;5075609;28;1171;-72
2022/07/16 09:41:21;;;;;;;;;;;;;;;;;;5085252;28;1746;-72
2022/07/16 09:43:47;;;;;;;;;;;;;;;;;;5092294;28;1226;-70
2022/07/16 09:46:18;;;;;;;;;;;;;;;;;;5092647;28;1055;-72
2022/07/16 09:48:44;;;;;;;;;;;;;;;;;;5093371;28;1973;-71
2022/07/16 09:51:15;;;;;;;;;;;;;;;;;;5093229;28;1375;-73
2022/07/16 09:53:43;;;;;;;;;;;;;;;;;;5093293;28;1111;-72
2022/07/16 09:56:10;;;;;;;;;;;;;;;;;;5074352;28;1225;-71
2022/07/16 09:58:37;;;;;;;;;;;;;;;;;;5093257;28;754;-72
2022/07/16 10:01:04;;;;;;;;;;;;;;;;;;5074524;28;1259;-72
2022/07/16 10:03:30;;;;;;;;;;;;;;;;;;5093284;28;1054;-73
2022/07/16 10:05:57;;;;;;;;;;;;;;;;;;5093064;28;1000;-71
2022/07/16 10:08:23;;;;;;;;;;;;;;;;;;5092081;28;1059;-72
2022/07/16 10:10:49;;;;;;;;;;;;;;;;;;5092837;28;1977;-71
2022/07/16 10:13:16;;;;;;;;;;;;;;;;;;5092612;28;845;-71
2022/07/16 10:15:44;;;;;;;;;;;;;;;;;;5074583;28;1123;-69
2022/07/16 10:18:30;;;;;;;;;;;;;;;;;;5091974;28;986;-71
2022/07/16 10:21:01;;;;;;;;;;;;;;;;;;5092396;28;1301;-71
2022/07/16 10:23:28;;;;;;;;;;;;;;;;;;5092861;28;1059;-73
2022/07/16 10:25:57;;;;;;;;;;;;;;;;;;5092813;28;928;-72
2022/07/16 10:28:35;;;;;;;;;;;;;;;;;;5073555;28;1138;-73
2022/07/16 10:31:16;;;;;;;;;;;;;;;;;;5091963;28;1973;-71
2022/07/16 10:33:44;;;;;;;;;;;;;;;;;;5091773;28;1370;-73
2022/07/16 10:36:10;;;;;;;;;;;;;;;;;;5091783;28;968;-73
2022/07/16 10:38:36;;;;;;;;;;;;;;;;;;5092454;28;1127;-72
2022/07/16 10:41:09;;;;;;;;;;;;;;;;;;5092066;28;1335;-71
2022/07/16 10:43:36;;;;;;;;;;;;;;;;;;5092277;28;1075;-72
2022/07/16 10:46:03;;;;;;;;;;;;;;;;;;5090535;28;1458;-71
2022/07/16 10:48:29;;;;;;;;;;;;;;;;;;5091468;28;1565;-71
2022/07/16 10:51:11;;;;;;;;;;;;;;;;;;5091873;28;1918;-72
2022/07/16 10:53:57;;;;;;;;;;;;;;;;;;5092027;28;1111;-71
2022/07/16 10:56:32;;;;;;;;;;;;;;;;;;5091165;28;964;-72
2022/07/16 10:58:58;;;;;;;;;;;;;;;;;;5091834;28;936;-71
2022/07/16 11:01:24;;;;;;;;;;;;;;;;;;5073778;28;1505;-72
2022/07/16 11:03:51;;;;;;;;;;;;;;;;;;5091973;28;937;-71
2022/07/16 11:06:19;;;;;;;;;;;;;;;;;;5090647;28;1060;-72
2022/07/16 11:08:46;;;;;;;;;;;;;;;;;;5091908;28;855;-72
2022/07/16 11:11:12;;;;;;;;;;;;;;;;;;5091503;28;1914;-72
2022/07/16 11:13:38;;;;;;;;;;;;;;;;;;5091705;28;957;-71
2022/07/16 11:16:07;;;;;;;;;;;;;;;;;;5091421;28;1063;-71
2022/07/16 11:18:35;;;;;;;;;;;;;;;;;;5091230;28;1555;-72
2022/07/16 11:21:05;;;;;;;;;;;;;;;;;;5091074;28;1314;-71
2022/07/16 11:23:32;;;;;;;;;;;;;;;;;;5091627;28;1003;-71
2022/07/16 11:26:01;;;;;;;;;;;;;;;;;;5091322;28;1349;-72
2022/07/16 11:28:27;;;;;;;;;;;;;;;;;;5090802;28;1051;-72
2022/07/16 11:31:00;;;;;;;;;;;;;;;;;;5106776;28;1913;-72
2022/07/16 11:33:33;;;;;;;;;;;;;;;;;;5107150;28;941;-72
2022/07/16 11:36:08;;;;;;;;;;;;;;;;;;5107190;28;1121;-72
2022/07/16 11:38:35;;;;;;;;;;;;;;;;;;5091530;28;1071;-72
2022/07/16 11:41:02;;;;;;;;;;;;;;;;;;5089995;28;1457;-71
2022/07/16 11:43:28;;;;;;;;;;;;;;;;;;5090374;28;1156;-72
2022/07/16 11:45:54;;;;;;;;;;;;;;;;;;5090196;28;1150;-72
2022/07/16 11:48:20;;;;;;;;;;;;;;;;;;5090998;28;798;-72
2022/07/16 11:50:47;;;;;;;;;;;;;;;;;;5091136;28;1910;-71
2022/07/16 11:53:13;;;;;;;;;;;;;;;;;;5090109;28;1182;-72
2022/07/16 11:55:43;;;;;;;;;;;;;;;;;;5091372;28;1066;-73
2022/07/16 11:58:09;;;;;;;;;;;;;;;;;;5090524;28;1059;-72
2022/07/16 12:00:42;;;;;;;;;;;;;;;;;;5091213;28;1332;-72
2022/07/16 12:03:10;;;;;;;;;;;;;;;;;;5091018;28;1121;-71
2022/07/16 12:05:36;;;;;;;;;;;;;;;;;;5091291;28;1145;-71
2022/07/16 12:08:03;;;;;;;;;;;;;;;;;;5090358;28;672;-72
2022/07/16 12:10:29;;;;;;;;;;;;;;;;;;5089643;28;1926;-73
2022/07/16 12:13:02;;;;;;;;;;;;;;;;;;5090987;28;941;-73
2022/07/16 12:15:29;;;;;;;;;;;;;;;;;;5089848;28;1155;-73
2022/07/16 12:17:55;;;;;;;;;;;;;;;;;;5091075;28;1083;-72
2022/07/16 12:20:25;;;;;;;;;;;;;;;;;;5094992;28;1305;-71
2022/07/16 12:22:53;;;;;;;;;;;;;;;;;;5095071;28;944;-72
2022/07/16 12:25:20;;;;;;;;;;;;;;;;;;5094803;28;1047;-72
2022/07/16 12:27:47;;;;;;;;;;;;;;;;;;5094367;28;1070;-72
2022/07/16 12:30:14;;;;;;;;;;;;;;;;;;5094705;28;1981;-73
2022/07/16 12:32:47;;;;;;;;;;;;;;;;;;5094857;28;1303;-73
2022/07/16 12:35:29;;;;;;;;;;;;;;;;;;5110317;28;1135;-73
2022/07/16 12:37:55;;;;;;;;;;;;;;;;;;5093905;28;1970;-72
2022/07/16 12:40:21;;;;;;;;;;;;;;;;;;5094498;28;1303;-72
2022/07/16 12:42:47;;;;;;;;;;;;;;;;;;5094520;28;834;-73
2022/07/16 12:45:15;;;;;;;;;;;;;;;;;;5093209;28;1044;-73
2022/07/16 12:47:41;;;;;;;;;;;;;;;;;;5093355;28;1458;-71
2022/07/16 12:50:07;;;;;;;;;;;;;;;;;;5094269;28;1919;-72
2022/07/16 12:52:35;;;;;;;;;;;;;;;;;;5094337;28;1056;-73
2022/07/16 13:00:30;;;;;;;;;;;;;;;;;;5075994;28;1323;-73
2022/07/16 13:02:56;;;;;;;;;;;;;;;;;;5094070;28;925;-73
2022/07/16 13:05:25;;;;;;;;;;;;;;;;;;5075859;28;1148;-72
2022/07/16 13:07:51;;;;;;;;;;;;;;;;;;5075177;28;1171;-73
2022/07/16 13:10:17;;;;;;;;;;;;;;;;;;5093688;28;1984;-72
2022/07/16 13:12:43;;;;;;;;;;;;;;;;;;5075759;28;1280;-73
2022/07/16 13:15:10;;;;;;;;;;;;;;;;;;5093900;28;823;-72
2022/07/16 13:17:37;;;;;;;;;;;;;;;;;;5093213;28;1111;-72
2022/07/16 13:20:04;;;;;;;;;;;;;;;;;;5093643;28;1397;-72
2022/07/16 13:22:30;;;;;;;;;;;;;;;;;;5093745;28;797;-73
2022/07/16 13:24:57;;;;;;;;;;;;;;;;;;5093970;28;1056;-72
2022/07/16 13:27:23;;;;;;;;;;;;;;;;;;5075216;28;1161;-72
2022/07/16 13:29:49;;;;;;;;;;;;;;;;;;5093587;28;1383;-72
2022/07/16 13:32:15;;;;;;;;;;;;;;;;;;5093708;28;1047;-72
2022/07/16 13:34:43;;;;;;;;;;;;;;;;;;5093668;28;1059;-72
2022/07/16 13:37:09;;;;;;;;;;;;;;;;;;5092672;28;1059;-73
2022/07/16 13:39:35;;;;;;;;;;;;;;;;;;5093436;28;1377;-73
2022/07/16 13:42:02;;;;;;;;;;;;;;;;;;5093349;28;1412;-73
2022/07/16 13:44:28;;;;;;;;;;;;;;;;;;5075183;28;1351;-74
2022/07/16 13:46:54;;;;;;;;;;;;;;;;;;5092823;28;980;-73
2022/07/16 13:49:20;;;;;;;;;;;;;;;;;;5073534;28;1774;-72
2022/07/16 13:51:48;;;;;;;;;;;;;;;;;;5072107;28;1997;-72
2022/07/16 13:54:15;;;;;;;;;;;;;;;;;;5083945;28;1274;-72
2022/07/16 13:56:41;;;;;;;;;;;;;;;;;;5092358;28;1138;-72
2022/07/16 13:59:06;;;;;;;;;;;;;;;;;;5093095;28;1130;-72
2022/07/16 14:01:32;;;;;;;;;;;;;;;;;;5092821;28;1351;-72
2022/07/16 14:03:58;;;;;;;;;;;;;;;;;;5093159;28;1048;-72
2022/07/16 14:06:25;;;;;;;;;;;;;;;;;;5092550;28;997;-72
2022/07/16 14:08:53;;;;;;;;;;;;;;;;;;5074772;28;1319;-72
2022/07/16 14:11:19;;;;;;;;;;;;;;;;;;5092652;28;1922;-72
2022/07/16 14:13:45;;;;;;;;;;;;;;;;;;5092868;28;1126;-72
2022/07/16 14:16:11;;;;;;;;;;;;;;;;;;5107814;28;1249;-72
2022/07/16 14:18:37;;;;;;;;;;;;;;;;;;5074423;28;898;-72
2022/07/16 14:21:03;;;;;;;;;;;;;;;;;;5074494;28;1313;-72
2022/07/16 14:23:30;;;;;;;;;;;;;;;;;;5092535;28;1067;-72
2022/07/16 14:25:57;;;;;;;;;;;;;;;;;;5092704;28;838;-71
2022/07/16 14:28:23;;;;;;;;;;;;;;;;;;5091831;28;1047;-71
2022/07/16 14:30:50;;;;;;;;;;;;;;;;;;5092195;28;1987;-71
2022/07/16 14:33:16;;;;;;;;;;;;;;;;;;5074488;28;1316;-72
2022/07/16 14:35:42;;;;;;;;;;;;;;;;;;5092588;28;1523;-73
2022/07/16 14:38:08;;;;;;;;;;;;;;;;;;5091763;28;1003;-71
2022/07/16 14:40:34;;;;;;;;;;;;;;;;;;5090840;28;1497;-71
2022/07/16 14:43:02;;;;;;;;;;;;;;;;;;5092462;28;1088;-71
2022/07/16 14:45:28;;;;;;;;;;;;;;;;;;5092166;28;1583;-71
2022/07/16 14:47:54;;;;;;;;;;;;;;;;;;5073355;28;1123;-71
2022/07/16 14:50:20;;;;;;;;;;;;;;;;;;5092104;28;1906;-71
2022/07/16 14:52:47;;;;;;;;;;;;;;;;;;5092027;28;838;-71
2022/07/16 14:55:14;;;;;;;;;;;;;;;;;;5092119;28;1134;-71
2022/07/16 14:57:40;;;;;;;;;;;;;;;;;;5091348;28;857;-70
2022/07/16 15:00:09;;;;;;;;;;;;;;;;;;5073793;28;1371;-73
2022/07/16 15:02:36;;;;;;;;;;;;;;;;;;5091771;28;1043;-70
2022/07/16 15:05:02;;;;;;;;;;;;;;;;;;5073712;28;1139;-70
2022/07/16 15:07:28;;;;;;;;;;;;;;;;;;5090916;28;1095;-71
2022/07/16 15:09:54;;;;;;;;;;;;;;;;;;5091254;28;1319;-70
2022/07/16 15:12:20;;;;;;;;;;;;;;;;;;5091505;28;2041;-73
2022/07/16 15:14:46;;;;;;;;;;;;;;;;;;5091918;28;945;-70
2022/07/16 15:17:14;;;;;;;;;;;;;;;;;;5091072;28;944;-70
2022/07/16 15:19:40;;;;;;;;;;;;;;;;;;5091524;28;788;-71
2022/07/16 15:22:07;;;;;;;;;;;;;;;;;;5091251;28;1396;-71
2022/07/16 15:24:33;;;;;;;;;;;;;;;;;;5090305;28;1386;-71
2022/07/16 15:26:59;;;;;;;;;;;;;;;;;;5090800;28;939;-70
2022/07/16 15:29:25;;;;;;;;;;;;;;;;;;5091461;28;1075;-71
2022/07/16 15:31:51;;;;;;;;;;;;;;;;;;5091759;28;1914;-71
2022/07/16 15:34:19;;;;;;;;;;;;;;;;;;5091818;28;877;-71
2022/07/16 15:36:45;;;;;;;;;;;;;;;;;;5091086;28;1114;-71
2022/07/16 15:39:11;;;;;;;;;;;;;;;;;;5091615;28;953;-71
2022/07/16 15:41:37;;;;;;;;;;;;;;;;;;5092441;28;1321;-71
2022/07/16 15:44:04;;;;;;;;;;;;;;;;;;5091352;28;1204;-71
2022/07/16 15:46:30;;;;;;;;;;;;;;;;;;5091198;28;857;-71
2022/07/16 15:48:56;;;;;;;;;;;;;;;;;;5107046;28;1236;-73
2022/07/16 15:51:23;;;;;;;;;;;;;;;;;;5091191;28;1988;-73
2022/07/16 15:53:50;;;;;;;;;;;;;;;;;;5098022;28;991;-73
2022/07/16 15:56:16;;;;;;;;;;;;;;;;;;5097575;28;1097;-70
2022/07/16 15:58:42;;;;;;;;;;;;;;;;;;5098009;28;1083;-71
2022/07/16 16:01:08;;;;;;;;;;;;;;;;;;5079554;28;1381;-71
2022/07/16 16:03:35;;;;;;;;;;;;;;;;;;5097948;28;1042;-71
2022/07/16 16:06:01;;;;;;;;;;;;;;;;;;5097942;28;805;-71
2022/07/16 16:08:28;;;;;;;;;;;;;;;;;;5097120;28;1126;-71
2022/07/16 16:10:55;;;;;;;;;;;;;;;;;;5097720;28;1955;-71
2022/07/16 16:13:21;;;;;;;;;;;;;;;;;;5079547;28;1241;-71
2022/07/16 16:15:47;;;;;;;;;;;;;;;;;;5097939;28;1063;-70
2022/07/16 16:18:14;;;;;;;;;;;;;;;;;;5097178;28;1159;-70
2022/07/16 16:20:40;;;;;;;;;;;;;;;;;;5097662;28;1434;-70
2022/07/16 16:23:06;;;;;;;;;;;;;;;;;;5097772;28;909;-71
2022/07/16 16:25:34;;;;;;;;;;;;;;;;;;5097760;28;810;-71
2022/07/16 16:28:00;;;;;;;;;;;;;;;;;;5097121;28;956;-72
2022/07/16 16:30:26;;;;;;;;;;;;;;;;;;5097446;28;1385;-73
2022/07/16 16:32:53;;;;;;;;;;;;;;;;;;5097582;28;1967;-73
2022/07/16 16:35:19;;;;;;;;;;;;;;;;;;5079348;28;1254;-71
2022/07/16 16:37:45;;;;;;;;;;;;;;;;;;5096446;28;1458;-70
2022/07/16 16:40:13;;;;;;;;;;;;;;;;;;5097706;28;1273;-71
2022/07/16 16:42:41;;;;;;;;;;;;;;;;;;5097497;28;1102;-71
2022/07/16 16:45:07;;;;;;;;;;;;;;;;;;5097672;28;1260;-71
2022/07/16 16:47:33;;;;;;;;;;;;;;;;;;5096729;28;794;-71
2022/07/16 16:49:59;;;;;;;;;;;;;;;;;;5097300;28;1298;-70
2022/07/16 16:52:26;;;;;;;;;;;;;;;;;;5097428;28;1914;-71
2022/07/16 16:54:52;;;;;;;;;;;;;;;;;;5097449;28;1063;-71
2022/07/16 16:57:18;;;;;;;;;;;;;;;;;;5078607;28;1492;-71
2022/07/16 16:59:45;;;;;;;;;;;;;;;;;;5097053;28;1142;-73
2022/07/16 17:02:12;;;;;;;;;;;;;;;;;;5079332;28;1338;-72
2022/07/16 17:04:38;;;;;;;;;;;;;;;;;;5094076;28;786;-72
2022/07/16 17:07:04;;;;;;;;;;;;;;;;;;5093723;28;1012;-71
2022/07/16 17:09:30;;;;;;;;;;;;;;;;;;5094091;28;1001;-71
2022/07/16 17:11:57;;;;;;;;;;;;;;;;;;5075775;28;1914;-71
2022/07/16 17:14:23;;;;;;;;;;;;;;;;;;5094219;28;1047;-71
2022/07/16 17:16:52;;;;;;;;;;;;;;;;;;5093360;28;1110;-71
2022/07/16 17:19:18;;;;;;;;;;;;;;;;;;5075816;28;1190;-71
2022/07/16 17:21:44;;;;;;;;;;;;;;;;;;5093972;28;1287;-71